Terminal Aerodrome Forecast
Issued by NWS Atlanta, GA

Home | Current Version | Previous Version | Text Only | Print | Product List | Glossary On
Versions: 1 2 3 4 5 6 7 8 9 10 11 12 13 14 15 16 17 18 19 20 21 22 23
980
FTUS42 KFFC 301734
TAFMCN
TAF
KMCN 301734Z 3018/0118 18010G18KT P6SM VCSH BKN050
      TEMPO 3018/3021 3SM TSRA BKN035CB
     FM010400 17005KT P6SM SCT035
     FM010800 18004KT 4SM BR BKN015
     FM011000 18004KT 3SM BR OVC009
     FM011400 21006KT P6SM OVC012
     FM011600 22008KT P6SM VCSH BKN025=

USA.gov is the U.S. government's official web portal to all federal, state and local government web resources and services.